createdAt,value
2024-03-09T00:00:59.026Z,1.47
2024-03-09T00:01:59.098Z,1.47
2024-03-09T00:02:59.097Z,1.46
2024-03-09T00:03:59.109Z,1.45
2024-03-09T00:04:59.360Z,1.41
2024-03-09T00:05:59.179Z,1.43
2024-03-09T00:06:59.252Z,1.44
2024-03-09T00:07:59.505Z,1.45
2024-03-09T00:08:59.275Z,1.47
2024-03-09T00:09:59.278Z,1.45
2024-03-09T00:10:59.415Z,1.42
2024-03-09T00:11:59.374Z,1.46
2024-03-09T00:12:59.354Z,1.47
2024-03-09T00:13:59.428Z,1.46
2024-03-09T00:14:59.418Z,1.45
2024-03-09T00:15:59.453Z,1.46
2024-03-09T00:16:59.573Z,1.44
2024-03-09T00:17:59.573Z,1.43
2024-03-09T00:18:59.573Z,1.43
2024-03-09T00:19:59.728Z,1.44
2024-03-09T00:20:59.618Z,1.42
2024-03-09T00:21:59.678Z,1.43
2024-03-09T00:22:59.842Z,1.46
2024-03-09T00:23:59.664Z,1.47
2024-03-09T00:24:59.722Z,1.51
2024-03-09T00:25:59.815Z,1.44
2024-03-09T00:26:59.822Z,1.47
2024-03-09T00:27:59.825Z,1.47
2024-03-09T00:28:59.863Z,1.44
2024-03-09T00:29:59.872Z,1.41
2024-03-09T00:30:59.924Z,1.46
2024-03-09T00:31:59.957Z,1.41
2024-03-09T00:33:00.015Z,1.42
2024-03-09T00:33:59.974Z,1.45
2024-03-09T00:35:00.060Z,1.48
2024-03-09T00:36:00.060Z,1.47
2024-03-09T00:37:00.144Z,1.46
2024-03-09T00:38:00.562Z,1.52
2024-03-09T00:39:00.165Z,1.50
2024-03-09T00:40:00.261Z,1.45
2024-03-09T00:41:00.288Z,1.53
2024-03-09T00:42:00.407Z,1.51
2024-03-09T00:43:00.498Z,1.47
2024-03-09T00:44:00.452Z,1.49
2024-03-09T00:45:00.475Z,1.49
2024-03-09T00:46:00.476Z,1.45
2024-03-09T00:47:00.563Z,1.46
2024-03-09T00:48:00.653Z,1.48
2024-03-09T00:49:00.630Z,1.47
2024-03-09T00:50:00.723Z,1.43
2024-03-09T00:51:00.701Z,1.40
2024-03-09T00:52:00.796Z,1.47
2024-03-09T00:53:00.912Z,1.50
2024-03-09T00:54:00.884Z,1.46
2024-03-09T00:55:00.941Z,1.44
2024-03-09T00:56:01.073Z,1.40
2024-03-09T00:57:01.012Z,1.47
2024-03-09T00:58:01.056Z,1.37
2024-03-09T00:59:03.042Z,1.41
2024-03-09T01:00:01.189Z,1.43
2024-03-09T01:01:01.229Z,1.46
2024-03-09T01:02:01.349Z,1.42
2024-03-09T01:03:01.352Z,1.41
2024-03-09T01:04:01.417Z,1.43
2024-03-09T01:05:01.530Z,1.38
2024-03-09T01:06:01.529Z,1.44
2024-03-09T01:07:01.581Z,1.44
2024-03-09T01:08:01.631Z,1.48
2024-03-09T01:09:01.768Z,1.47
2024-03-09T01:10:01.707Z,1.42
2024-03-09T01:11:01.915Z,1.38
2024-03-09T01:12:01.930Z,1.39
2024-03-09T01:13:01.836Z,1.41
2024-03-09T01:14:02.159Z,1.39
2024-03-09T01:15:01.942Z,1.47
2024-03-09T01:16:02.013Z,1.48
2024-03-09T01:17:02.122Z,1.51
2024-03-09T01:18:02.148Z,1.43
2024-03-09T01:19:02.201Z,1.40
2024-03-09T01:20:02.384Z,1.40
2024-03-09T01:21:02.265Z,1.43
2024-03-09T01:22:02.303Z,1.42
2024-03-09T01:23:02.440Z,1.44
2024-03-09T01:24:02.411Z,1.39
2024-03-09T01:25:02.493Z,1.42
2024-03-09T01:26:02.601Z,1.42
2024-03-09T01:27:02.571Z,1.39
2024-03-09T01:28:02.593Z,1.45
2024-03-09T01:29:02.854Z,1.53
2024-03-09T01:30:03.057Z,1.49
2024-03-09T01:31:02.793Z,1.48
2024-03-09T01:32:02.906Z,1.49
2024-03-09T01:33:02.854Z,1.48
2024-03-09T01:34:02.883Z,1.49
2024-03-09T01:35:03.053Z,1.49
2024-03-09T01:36:02.964Z,1.50
2024-03-09T01:37:03.027Z,1.46
2024-03-09T01:38:03.087Z,1.48
2024-03-09T01:39:03.132Z,1.49
2024-03-09T01:40:03.207Z,1.49
2024-03-09T01:41:03.315Z,1.50
2024-03-09T01:42:03.305Z,1.46
2024-03-09T01:43:03.312Z,1.44
2024-03-09T01:44:03.401Z,1.43
2024-03-09T01:45:03.434Z,1.46
2024-03-09T01:46:03.476Z,1.43
2024-03-09T01:47:03.645Z,1.48
2024-03-09T01:48:03.640Z,1.52
2024-03-09T01:49:03.619Z,1.53
2024-03-09T01:50:03.816Z,1.52
2024-03-09T01:51:03.746Z,1.57
2024-03-09T01:52:03.790Z,1.52
2024-03-09T01:53:03.856Z,1.48
2024-03-09T01:54:03.900Z,1.49
2024-03-09T01:55:03.955Z,1.50
2024-03-09T01:56:04.087Z,1.43
2024-03-09T01:57:04.097Z,1.48
2024-03-09T01:58:04.128Z,1.52
2024-03-09T01:59:04.239Z,1.51
2024-03-09T02:00:04.353Z,1.54
2024-03-09T02:01:04.349Z,1.50
2024-03-09T02:02:04.429Z,1.47
2024-03-09T02:03:04.441Z,1.48
2024-03-09T02:04:04.526Z,1.51
2024-03-09T02:05:04.890Z,1.48
2024-03-09T02:06:04.616Z,1.46
2024-03-09T02:07:04.695Z,1.52
2024-03-09T02:08:04.829Z,1.49
2024-03-09T02:09:04.813Z,1.48
2024-03-09T02:10:04.922Z,1.48
2024-03-09T02:11:05.050Z,1.47
2024-03-09T02:12:05.044Z,1.46
2024-03-09T02:13:05.094Z,1.51
2024-03-09T02:14:05.128Z,1.55
2024-03-09T02:15:05.210Z,1.55
2024-03-09T02:16:05.277Z,1.56
2024-03-09T02:17:05.396Z,1.55
2024-03-09T02:18:05.415Z,1.57
2024-03-09T02:19:05.448Z,1.59
2024-03-09T02:20:05.499Z,1.53
2024-03-09T02:21:05.551Z,1.53
2024-03-09T02:22:05.618Z,1.53
2024-03-09T02:23:05.761Z,1.51
2024-03-09T02:24:05.724Z,1.52
2024-03-09T02:25:05.775Z,1.54
2024-03-09T02:26:05.936Z,1.53
2024-03-09T02:27:05.922Z,1.54
2024-03-09T02:28:05.974Z,1.55
2024-03-09T02:29:06.114Z,1.56
2024-03-09T02:30:06.086Z,1.54
2024-03-09T02:31:06.163Z,1.57
2024-03-09T02:33:06.326Z,1.50
2024-03-09T02:34:06.366Z,1.54
2024-03-09T02:35:06.418Z,1.53
2024-03-09T02:36:06.425Z,1.54
2024-03-09T02:37:06.498Z,1.53
2024-03-09T02:38:06.589Z,1.56
2024-03-09T02:39:06.667Z,1.54
2024-03-09T02:40:06.694Z,1.57
2024-03-09T02:41:06.780Z,1.53
2024-03-09T02:42:06.805Z,1.54
2024-03-09T02:43:06.890Z,1.51
2024-03-09T02:44:06.958Z,1.46
2024-03-09T02:45:07.026Z,1.46
2024-03-09T02:46:07.108Z,1.46
2024-03-09T02:47:07.215Z,1.50
2024-03-09T02:48:07.210Z,1.52
2024-03-09T02:49:07.259Z,1.46
2024-03-09T02:50:07.502Z,1.50
2024-03-09T02:51:07.367Z,1.51
2024-03-09T02:52:07.427Z,1.46
2024-03-09T02:53:07.585Z,1.49
2024-03-09T02:54:07.419Z,1.55
2024-03-09T02:55:07.490Z,1.54
2024-03-09T02:56:07.517Z,1.52
2024-03-09T02:57:07.462Z,1.55
2024-03-09T02:58:07.415Z,1.55
2024-03-09T02:59:07.507Z,1.55
2024-03-09T03:00:07.456Z,1.58
2024-03-09T03:01:07.529Z,1.53
2024-03-09T03:02:07.560Z,1.52
2024-03-09T03:03:07.460Z,1.54
2024-03-09T03:04:07.429Z,1.54
2024-03-09T03:05:07.550Z,1.52
2024-03-09T03:06:07.453Z,1.52
2024-03-09T03:07:07.446Z,1.52
2024-03-09T03:08:07.556Z,1.52
2024-03-09T03:09:07.478Z,1.55
2024-03-09T03:10:07.489Z,1.47
2024-03-09T03:11:07.583Z,1.50
2024-03-09T03:12:07.471Z,1.53
2024-03-09T03:13:07.536Z,1.51
2024-03-09T03:14:07.620Z,1.47
2024-03-09T03:15:07.514Z,1.54
2024-03-09T03:16:07.473Z,1.55
2024-03-09T03:17:07.595Z,1.53
2024-03-09T03:18:07.479Z,1.52
2024-03-09T03:19:07.950Z,1.55
2024-03-09T03:20:07.537Z,1.52
2024-03-09T03:21:07.488Z,1.55
2024-03-09T03:22:07.516Z,1.52
2024-03-09T03:23:07.568Z,1.55
2024-03-09T03:24:07.467Z,1.55
2024-03-09T03:25:07.459Z,1.51
2024-03-09T03:26:10.442Z,1.57
2024-03-09T03:27:07.506Z,1.57
2024-03-09T03:28:07.568Z,1.57
2024-03-09T03:29:07.587Z,1.54
2024-03-09T03:30:07.479Z,1.55
2024-03-09T03:31:07.514Z,1.57
2024-03-09T03:32:07.528Z,1.56
2024-03-09T03:33:07.780Z,1.56
2024-03-09T03:34:07.526Z,1.51
2024-03-09T03:35:07.544Z,1.51
2024-03-09T03:36:07.535Z,1.51
2024-03-09T03:37:07.563Z,1.54
2024-03-09T03:38:07.938Z,1.55
2024-03-09T03:39:07.512Z,1.56
2024-03-09T03:40:07.512Z,1.55
2024-03-09T03:41:07.743Z,1.52
2024-03-09T03:42:07.539Z,1.56
2024-03-09T03:43:07.523Z,1.55
2024-03-09T03:44:07.603Z,1.54
2024-03-09T03:45:07.725Z,1.53
2024-03-09T03:46:07.672Z,1.54
2024-03-09T03:47:07.836Z,1.53
2024-03-09T03:48:07.897Z,1.56
2024-03-09T03:49:07.927Z,1.57
2024-03-09T03:50:07.980Z,1.52
2024-03-09T03:51:07.998Z,1.50
2024-03-09T03:52:08.075Z,1.50
2024-03-09T03:53:08.335Z,1.53
2024-03-09T03:54:08.224Z,1.51
2024-03-09T03:55:08.302Z,1.50
2024-03-09T03:56:08.428Z,1.54
2024-03-09T03:57:08.399Z,1.54
2024-03-09T03:58:08.530Z,1.51
2024-03-09T03:59:08.660Z,1.50
2024-03-09T04:00:08.618Z,1.52
2024-03-09T04:01:08.786Z,1.52
2024-03-09T04:02:08.902Z,1.49
2024-03-09T04:03:08.842Z,1.51
2024-03-09T04:04:08.886Z,1.51
2024-03-09T04:05:09.065Z,1.49
2024-03-09T04:06:09.049Z,1.52
2024-03-09T04:07:09.099Z,1.52
2024-03-09T04:08:09.225Z,1.49
2024-03-09T04:09:09.229Z,1.53
2024-03-09T04:10:09.306Z,1.50
2024-03-09T04:11:09.564Z,1.49
2024-03-09T04:12:09.459Z,1.47
2024-03-09T04:13:09.450Z,1.51
2024-03-09T04:14:09.557Z,1.51
2024-03-09T04:15:09.584Z,1.50
2024-03-09T04:16:09.621Z,1.51
2024-03-09T04:17:09.767Z,1.51
2024-03-09T04:18:09.788Z,1.50
2024-03-09T04:19:09.800Z,1.46
2024-03-09T04:20:09.952Z,1.52
2024-03-09T04:21:09.970Z,1.51
2024-03-09T04:22:09.950Z,1.48
2024-03-09T04:23:09.996Z,1.49
2024-03-09T04:24:10.025Z,1.50
2024-03-09T04:25:10.221Z,1.49
2024-03-09T04:26:10.176Z,1.51
2024-03-09T04:27:10.251Z,1.50
2024-03-09T04:28:10.216Z,1.50
2024-03-09T04:29:10.336Z,1.50
2024-03-09T04:30:10.374Z,1.51
2024-03-09T04:31:17.588Z,0.50
2024-03-09T04:32:17.669Z,0.50
2024-03-09T04:33:17.594Z,0.50
2024-03-09T04:34:17.603Z,0.50
2024-03-09T04:35:17.631Z,0.50
2024-03-09T04:36:17.718Z,0.51
2024-03-09T04:37:17.613Z,0.51
2024-03-09T04:38:17.896Z,0.51
2024-03-09T04:39:17.596Z,0.51
2024-03-09T04:40:17.655Z,0.52
2024-03-09T04:41:17.647Z,0.51
2024-03-09T04:42:17.619Z,0.51
2024-03-09T04:43:17.597Z,0.52
2024-03-09T04:44:22.410Z,0.52
2024-03-09T04:45:18.605Z,0.52
2024-03-09T04:46:17.615Z,0.52
2024-03-09T04:47:17.607Z,0.52
2024-03-09T04:48:17.638Z,0.52
2024-03-09T04:49:17.638Z,0.52
2024-03-09T04:50:17.660Z,0.51
2024-03-09T04:51:17.624Z,0.52
2024-03-09T04:52:17.645Z,0.52
2024-03-09T04:53:18.270Z,0.53
2024-03-09T04:54:17.653Z,0.51
2024-03-09T04:55:17.613Z,0.52
2024-03-09T04:56:17.765Z,0.51
2024-03-09T04:57:17.724Z,0.51
2024-03-09T04:58:17.761Z,0.51
2024-03-09T04:59:17.902Z,0.51
2024-03-09T05:00:17.890Z,0.52
2024-03-09T05:01:17.967Z,0.52
2024-03-09T05:02:18.023Z,0.50
2024-03-09T05:03:18.052Z,0.52
2024-03-09T05:04:18.111Z,0.52
2024-03-09T05:05:18.145Z,0.52
2024-03-09T05:06:18.241Z,0.52
2024-03-09T05:07:18.260Z,0.51
2024-03-09T05:08:18.359Z,0.52
2024-03-09T05:09:18.413Z,0.52
2024-03-09T05:10:18.456Z,0.52
2024-03-09T05:11:18.523Z,0.53
2024-03-09T05:12:18.518Z,0.52
2024-03-09T05:13:18.564Z,0.52
2024-03-09T05:14:18.648Z,0.53
2024-03-09T05:15:18.697Z,0.52
2024-03-09T05:16:18.750Z,0.53
2024-03-09T05:17:18.828Z,0.52
2024-03-09T05:18:18.944Z,0.52
2024-03-09T05:19:18.918Z,0.52
2024-03-09T05:20:18.990Z,0.51
2024-03-09T05:21:19.044Z,0.52
2024-03-09T05:22:19.100Z,0.52
2024-03-09T05:23:19.210Z,0.51
2024-03-09T05:24:19.232Z,0.53
2024-03-09T05:25:19.258Z,0.52
2024-03-09T05:26:19.348Z,0.52
2024-03-09T05:27:19.381Z,0.52
2024-03-09T05:28:19.458Z,0.53
2024-03-09T05:29:19.501Z,0.53
2024-03-09T05:30:19.627Z,0.54
2024-03-09T05:31:19.616Z,0.52
2024-03-09T05:32:19.666Z,0.52
2024-03-09T05:33:19.798Z,0.53
2024-03-09T05:34:19.800Z,0.53
2024-03-09T05:35:19.848Z,0.53
2024-03-09T05:36:19.915Z,0.53
2024-03-09T05:37:19.963Z,0.52
2024-03-09T05:38:20.056Z,0.53
2024-03-09T05:39:20.052Z,0.52
2024-03-09T05:40:20.161Z,0.54
2024-03-09T05:41:20.185Z,0.53
2024-03-09T05:42:20.210Z,0.54
2024-03-09T05:43:20.277Z,0.53
2024-03-09T05:44:20.325Z,0.53
2024-03-09T05:45:20.379Z,0.53
2024-03-09T05:46:20.418Z,0.52
2024-03-09T05:47:20.501Z,0.52
2024-03-09T05:48:20.641Z,0.53
2024-03-09T05:49:20.614Z,0.52
2024-03-09T05:50:20.656Z,0.53
2024-03-09T05:51:20.749Z,0.53
2024-03-09T05:52:20.788Z,0.53
2024-03-09T05:53:20.921Z,0.53
2024-03-09T05:54:20.884Z,0.53
2024-03-09T05:55:20.979Z,0.53
2024-03-09T05:56:21.081Z,0.54
2024-03-09T05:57:21.041Z,0.52
2024-03-09T05:58:21.141Z,0.53
2024-03-09T05:59:21.163Z,0.53
2024-03-09T06:00:21.266Z,0.54
2024-03-09T06:01:21.328Z,0.54
2024-03-09T06:02:21.416Z,0.53
2024-03-09T06:03:21.420Z,0.53
2024-03-09T06:04:21.461Z,0.54
2024-03-09T06:05:21.531Z,0.54
2024-03-09T06:06:21.597Z,0.54
2024-03-09T06:07:21.658Z,0.53
2024-03-09T06:08:21.738Z,0.53
2024-03-09T06:09:21.776Z,0.53
2024-03-09T06:10:21.823Z,0.54
2024-03-09T06:11:21.931Z,0.54
2024-03-09T06:12:22.086Z,0.53
2024-03-09T06:13:21.980Z,0.52
2024-03-09T06:14:22.014Z,0.53
2024-03-09T06:15:22.089Z,0.53
2024-03-09T06:16:22.124Z,0.53
2024-03-09T06:17:22.155Z,0.54
2024-03-09T06:18:22.222Z,0.54
2024-03-09T06:19:22.307Z,0.54
2024-03-09T06:20:22.348Z,0.53
2024-03-09T06:21:22.436Z,0.53
2024-03-09T06:22:22.474Z,0.53
2024-03-09T06:23:22.521Z,0.54
2024-03-09T06:24:22.604Z,0.51
2024-03-09T06:25:22.642Z,0.53
2024-03-09T06:26:22.674Z,0.53
2024-03-09T06:27:22.701Z,0.54
2024-03-09T06:28:22.818Z,0.54
2024-03-09T06:29:22.951Z,0.54
2024-03-09T06:30:25.619Z,0.54
2024-03-09T06:31:22.880Z,0.54
2024-03-09T06:32:22.872Z,0.53
2024-03-09T06:33:22.925Z,0.54
2024-03-09T06:34:22.912Z,0.54
2024-03-09T06:35:22.897Z,0.55
2024-03-09T06:36:22.914Z,0.54
2024-03-09T06:37:22.901Z,0.54
2024-03-09T06:38:22.917Z,0.53
2024-03-09T06:39:22.938Z,0.54
2024-03-09T06:40:22.915Z,0.53
2024-03-09T06:41:24.737Z,0.53
2024-03-09T06:42:22.913Z,0.55
2024-03-09T06:43:22.906Z,0.54
2024-03-09T06:44:22.976Z,0.53
2024-03-09T06:45:22.931Z,0.54
2024-03-09T06:46:22.899Z,0.53
2024-03-09T06:47:22.944Z,0.54
2024-03-09T06:48:22.918Z,0.53
2024-03-09T06:49:22.955Z,0.54
2024-03-09T06:50:23.072Z,0.54
2024-03-09T06:51:22.923Z,0.53
2024-03-09T06:52:22.925Z,0.54
2024-03-09T06:53:22.992Z,0.53
2024-03-09T06:54:22.954Z,0.54
2024-03-09T06:55:23.013Z,0.53
2024-03-09T06:56:23.028Z,0.52
2024-03-09T06:57:22.928Z,0.53
2024-03-09T06:58:22.957Z,0.52
2024-03-09T06:59:22.922Z,0.52
2024-03-09T07:00:22.987Z,0.54
2024-03-09T07:01:23.000Z,0.53
2024-03-09T07:02:23.006Z,0.53
2024-03-09T07:03:22.958Z,0.52
2024-03-09T07:04:22.924Z,0.53
2024-03-09T07:05:23.034Z,0.52
2024-03-09T07:06:22.972Z,0.54
2024-03-09T07:07:22.943Z,0.53
2024-03-09T07:08:23.081Z,0.53
2024-03-09T07:09:22.942Z,0.54
2024-03-09T07:10:22.941Z,0.53
2024-03-09T07:11:23.018Z,0.54
2024-03-09T07:12:22.968Z,0.53
2024-03-09T07:13:22.965Z,0.54
2024-03-09T07:14:22.957Z,0.53
2024-03-09T07:15:22.965Z,0.53
2024-03-09T07:16:22.998Z,0.54
2024-03-09T07:17:22.955Z,0.54
2024-03-09T07:18:23.018Z,0.53
2024-03-09T07:19:22.970Z,0.55
2024-03-09T07:20:23.070Z,0.54
2024-03-09T07:21:22.978Z,0.53
2024-03-09T07:22:23.036Z,0.55
2024-03-09T07:23:23.064Z,0.54
2024-03-09T07:24:22.993Z,0.55
2024-03-09T07:25:22.992Z,0.55
2024-03-09T07:26:23.048Z,0.55
2024-03-09T07:27:22.981Z,0.55
2024-03-09T07:28:23.019Z,0.54
2024-03-09T07:29:23.046Z,0.55
2024-03-09T07:30:23.040Z,0.54
2024-03-09T07:31:23.009Z,0.55
2024-03-09T07:32:23.138Z,0.56
2024-03-09T07:33:23.067Z,0.54
2024-03-09T07:34:22.992Z,0.53
2024-03-09T07:35:23.018Z,0.54
2024-03-09T07:36:23.003Z,0.52
2024-03-09T07:37:25.202Z,0.50
2024-03-09T07:38:23.139Z,0.50
2024-03-09T07:39:23.132Z,0.52
2024-03-09T07:40:23.210Z,0.52
2024-03-09T07:41:23.177Z,0.52
2024-03-09T07:42:23.179Z,0.53
2024-03-09T07:43:23.176Z,0.53
2024-03-09T07:44:23.259Z,0.56
2024-03-09T07:45:23.241Z,0.55
2024-03-09T07:46:23.274Z,0.57
2024-03-09T07:47:23.392Z,0.57
2024-03-09T07:48:23.438Z,0.59
2024-03-09T07:49:23.513Z,0.59
2024-03-09T07:50:23.887Z,0.60
2024-03-09T07:51:23.638Z,0.61
2024-03-09T07:52:23.628Z,0.64
2024-03-09T07:53:23.654Z,0.68
2024-03-09T07:54:23.739Z,0.67
2024-03-09T07:55:23.792Z,0.67
2024-03-09T07:56:23.937Z,0.68
2024-03-09T07:57:23.854Z,0.67
2024-03-09T07:58:26.785Z,0.65
2024-03-09T07:59:23.900Z,0.65
2024-03-09T08:00:23.895Z,0.62
2024-03-09T08:01:23.959Z,0.62
2024-03-09T08:02:23.973Z,0.60
2024-03-09T08:03:24.166Z,0.60
2024-03-09T08:04:23.967Z,0.58
2024-03-09T08:05:23.923Z,0.58
2024-03-09T08:06:23.918Z,0.56
2024-03-09T08:07:23.935Z,0.55
2024-03-09T08:08:24.002Z,0.58
2024-03-09T08:09:23.948Z,0.55
2024-03-09T08:10:23.948Z,0.55
2024-03-09T08:11:24.106Z,0.55
2024-03-09T08:12:23.957Z,0.54
2024-03-09T08:13:23.929Z,0.54
2024-03-09T08:14:23.952Z,0.54
2024-03-09T08:15:23.964Z,0.52
2024-03-09T08:16:23.944Z,0.54
2024-03-09T08:17:23.945Z,0.51
2024-03-09T08:18:24.300Z,0.51
2024-03-09T08:19:23.980Z,0.51
2024-03-09T08:20:24.809Z,0.54
2024-03-09T08:21:23.983Z,0.52
2024-03-09T08:22:23.946Z,0.50
2024-03-09T08:23:23.991Z,0.52
2024-03-09T08:24:23.965Z,0.51
2024-03-09T08:25:24.011Z,0.50
2024-03-09T08:26:24.069Z,0.51
2024-03-09T08:27:23.967Z,0.51
2024-03-09T08:28:24.054Z,0.52
2024-03-09T08:29:24.002Z,0.53
2024-03-09T08:30:23.957Z,0.50
2024-03-09T08:31:23.986Z,0.51
2024-03-09T08:32:23.947Z,0.51
2024-03-09T08:33:24.035Z,0.51
2024-03-09T08:34:23.958Z,0.51
2024-03-09T08:35:24.026Z,0.52
2024-03-09T08:36:23.983Z,0.54
2024-03-09T08:37:23.978Z,0.54
2024-03-09T08:38:24.013Z,0.54
2024-03-09T08:39:24.005Z,0.55
2024-03-09T08:40:24.042Z,0.53
2024-03-09T08:41:24.135Z,0.51
2024-03-09T08:42:24.180Z,0.53
2024-03-09T08:43:24.214Z,0.54
2024-03-09T08:44:24.254Z,0.52
2024-03-09T08:45:24.358Z,0.52
2024-03-09T08:46:24.345Z,0.53
2024-03-09T08:47:24.424Z,0.50
2024-03-09T08:48:24.449Z,0.53
2024-03-09T08:49:24.511Z,0.52
2024-03-09T08:50:24.674Z,0.51
2024-03-09T08:51:24.643Z,0.51
2024-03-09T08:52:24.941Z,0.53
2024-03-09T08:53:24.763Z,0.52
2024-03-09T08:54:24.708Z,0.53
2024-03-09T08:55:25.005Z,0.52
2024-03-09T08:56:24.835Z,0.53
2024-03-09T08:57:24.868Z,0.53
2024-03-09T08:58:24.945Z,0.52
2024-03-09T08:59:25.002Z,0.53
2024-03-09T09:00:25.000Z,0.50
2024-03-09T09:01:25.139Z,0.51
2024-03-09T09:02:25.145Z,0.52
2024-03-09T09:03:25.141Z,0.53
2024-03-09T09:04:25.202Z,0.50
2024-03-09T09:05:25.217Z,0.53
2024-03-09T09:06:25.261Z,0.51
2024-03-09T09:07:25.289Z,0.52
2024-03-09T09:08:25.388Z,0.55
2024-03-09T09:09:25.340Z,0.50
2024-03-09T09:10:25.392Z,0.54
2024-03-09T09:11:25.459Z,0.51
2024-03-09T09:12:25.461Z,0.52
2024-03-09T09:13:25.463Z,0.51
2024-03-09T09:14:25.453Z,0.53
2024-03-09T09:15:25.475Z,0.54
2024-03-09T09:16:25.627Z,0.53
2024-03-09T09:17:25.557Z,0.55
2024-03-09T09:18:25.528Z,0.52
2024-03-09T09:19:25.548Z,0.52
2024-03-09T09:20:25.985Z,0.53
2024-03-09T09:21:25.571Z,0.51
2024-03-09T09:22:25.569Z,0.52
2024-03-09T09:23:25.607Z,0.53
2024-03-09T09:24:25.594Z,0.52
2024-03-09T09:25:29.417Z,0.52
2024-03-09T09:26:26.724Z,0.52
2024-03-09T09:27:25.605Z,0.52
2024-03-09T09:28:25.597Z,0.52
2024-03-09T09:29:25.598Z,0.51
2024-03-09T09:30:25.603Z,0.52
2024-03-09T09:31:25.575Z,0.52
2024-03-09T09:32:25.713Z,0.52
2024-03-09T09:33:25.648Z,0.53
2024-03-09T09:34:25.620Z,0.52
2024-03-09T09:35:25.670Z,0.50
2024-03-09T09:36:25.580Z,0.53
2024-03-09T09:37:25.581Z,0.53
2024-03-09T09:38:25.639Z,0.51
2024-03-09T09:39:25.663Z,0.52
2024-03-09T09:40:25.653Z,0.52
2024-03-09T09:41:25.608Z,0.52
2024-03-09T09:42:25.596Z,0.53
2024-03-09T09:43:25.663Z,0.50
2024-03-09T09:44:25.620Z,0.52
2024-03-09T09:45:25.678Z,0.51
2024-03-09T09:46:25.608Z,0.52
2024-03-09T09:47:25.652Z,0.52
2024-03-09T09:48:25.629Z,0.51
2024-03-09T09:49:25.616Z,0.51
2024-03-09T09:50:25.741Z,0.52
2024-03-09T09:51:25.680Z,0.52
2024-03-09T09:52:25.696Z,0.51
2024-03-09T09:53:25.751Z,0.52
2024-03-09T09:54:25.799Z,0.51
2024-03-09T09:55:25.935Z,0.52
2024-03-09T09:56:25.956Z,0.52
2024-03-09T09:57:26.043Z,0.52
2024-03-09T09:58:26.061Z,0.50
2024-03-09T09:59:26.187Z,0.51
2024-03-09T10:00:26.173Z,0.52
2024-03-09T10:01:26.262Z,0.50
2024-03-09T10:02:26.473Z,0.52
2024-03-09T10:03:26.387Z,0.52
2024-03-09T10:04:26.460Z,0.52
2024-03-09T10:05:26.628Z,0.51
2024-03-09T10:06:26.594Z,0.52
2024-03-09T10:07:26.643Z,0.52
2024-03-09T10:08:26.721Z,0.52
2024-03-09T10:09:26.825Z,0.52
2024-03-09T10:10:26.811Z,0.54
2024-03-09T10:11:26.969Z,0.52
2024-03-09T10:12:26.990Z,0.51
2024-03-09T10:13:27.040Z,0.52
2024-03-09T10:14:27.146Z,0.51
2024-03-09T10:15:27.200Z,0.52
2024-03-09T10:16:27.289Z,0.52
2024-03-09T10:17:27.388Z,0.52
2024-03-09T10:18:27.403Z,0.52
2024-03-09T10:19:27.494Z,0.52
2024-03-09T10:20:27.546Z,0.52
2024-03-09T10:21:27.631Z,0.53
2024-03-09T10:22:27.700Z,0.52
2024-03-09T10:23:27.861Z,0.52
2024-03-09T10:24:27.823Z,0.52
2024-03-09T10:25:27.927Z,0.52
2024-03-09T10:26:27.963Z,0.51
2024-03-09T10:27:29.712Z,0.50
2024-03-09T10:28:28.140Z,0.51
2024-03-09T10:29:28.178Z,0.52
2024-03-09T10:30:28.306Z,0.52
2024-03-09T10:31:28.302Z,0.51
2024-03-09T10:32:28.400Z,0.53
2024-03-09T10:33:28.501Z,0.52
2024-03-09T10:34:28.519Z,0.52
2024-03-09T10:35:28.786Z,0.51
2024-03-09T10:36:28.731Z,0.53
2024-03-09T10:37:28.739Z,0.51
2024-03-09T10:38:28.774Z,0.53
2024-03-09T10:39:28.825Z,0.52
2024-03-09T10:40:28.925Z,0.52
2024-03-09T10:41:28.983Z,0.52
2024-03-09T10:42:29.025Z,0.51
2024-03-09T10:43:29.092Z,0.52
2024-03-09T10:44:29.174Z,0.51
2024-03-09T10:45:29.259Z,0.50
2024-03-09T10:46:29.277Z,0.51
2024-03-09T10:47:29.332Z,0.51
2024-03-09T10:48:29.368Z,0.51
2024-03-09T10:49:29.426Z,0.52
2024-03-09T10:50:29.501Z,0.52
2024-03-09T10:51:29.532Z,0.52
2024-03-09T10:52:29.620Z,0.53
2024-03-09T10:53:29.634Z,0.52
2024-03-09T10:54:29.719Z,0.52
2024-03-09T10:55:29.757Z,0.51
2024-03-09T10:56:29.838Z,0.53
2024-03-09T10:57:29.889Z,0.53
2024-03-09T10:58:29.937Z,0.53
2024-03-09T10:59:30.004Z,0.53
2024-03-09T11:00:30.100Z,0.54
2024-03-09T11:01:30.167Z,0.53
2024-03-09T11:02:30.124Z,0.52
2024-03-09T11:03:30.155Z,0.53
2024-03-09T11:04:30.230Z,0.52
2024-03-09T11:05:30.277Z,0.53
2024-03-09T11:06:30.335Z,0.53
2024-03-09T11:07:30.388Z,0.53
2024-03-09T11:08:30.423Z,0.54
2024-03-09T11:09:30.678Z,0.53
2024-03-09T11:10:30.540Z,0.53
2024-03-09T11:11:30.682Z,0.54
2024-03-09T11:12:30.628Z,0.54
2024-03-09T11:13:30.686Z,0.53
2024-03-09T11:14:30.735Z,0.54
2024-03-09T11:15:30.789Z,0.54
2024-03-09T11:16:30.900Z,0.54
2024-03-09T11:17:30.926Z,0.53
2024-03-09T11:18:30.948Z,0.54
2024-03-09T11:19:30.994Z,0.54
2024-03-09T11:20:31.031Z,0.53
2024-03-09T11:21:31.448Z,0.54
2024-03-09T11:22:31.049Z,0.54
2024-03-09T11:23:31.048Z,0.54
2024-03-09T11:24:31.230Z,0.56
2024-03-09T11:25:31.039Z,0.55
2024-03-09T11:26:31.047Z,0.54
2024-03-09T11:27:31.024Z,0.53
2024-03-09T11:28:31.078Z,0.54
2024-03-09T11:29:31.412Z,0.53
2024-03-09T11:30:31.092Z,0.55
2024-03-09T11:31:31.077Z,0.53
2024-03-09T11:32:31.160Z,0.53
2024-03-09T11:33:31.053Z,0.53
2024-03-09T11:34:31.040Z,0.54
2024-03-09T11:35:31.066Z,0.53
2024-03-09T11:36:31.057Z,0.53
2024-03-09T11:37:31.086Z,0.52
2024-03-09T11:38:31.110Z,0.53
2024-03-09T11:39:31.357Z,0.54
2024-03-09T11:40:31.073Z,0.53
2024-03-09T11:41:31.096Z,0.53
2024-03-09T11:42:31.070Z,0.52
2024-03-09T11:43:31.072Z,0.53
2024-03-09T11:44:31.069Z,0.53
2024-03-09T11:45:31.088Z,0.54
2024-03-09T11:46:31.099Z,0.54
2024-03-09T11:47:31.143Z,0.52
2024-03-09T11:48:31.193Z,0.53
2024-03-09T11:49:31.119Z,0.53
2024-03-09T11:50:31.153Z,0.53
2024-03-09T11:51:31.112Z,0.54
2024-03-09T11:52:31.112Z,0.53
2024-03-09T11:53:31.130Z,0.53
2024-03-09T11:54:31.136Z,0.53
2024-03-09T11:55:31.087Z,0.53
2024-03-09T11:56:31.089Z,0.53
2024-03-09T11:57:31.110Z,0.54
2024-03-09T11:58:31.138Z,0.52
2024-03-09T11:59:31.204Z,0.53
2024-03-09T12:00:31.130Z,0.53
2024-03-09T12:01:31.128Z,0.52
2024-03-09T12:02:31.212Z,0.54
2024-03-09T12:03:31.138Z,0.53
2024-03-09T12:04:31.157Z,0.52
2024-03-09T12:05:31.119Z,0.53
2024-03-09T12:06:31.120Z,0.53
2024-03-09T12:07:31.197Z,0.53
2024-03-09T12:08:31.173Z,0.53
2024-03-09T12:09:31.246Z,0.53
2024-03-09T12:10:31.255Z,0.53
2024-03-09T12:11:31.369Z,0.55
2024-03-09T12:12:31.265Z,0.53
2024-03-09T12:13:31.311Z,0.54
2024-03-09T12:14:31.341Z,0.53
2024-03-09T12:15:31.336Z,0.51
2024-03-09T12:16:31.363Z,0.53
2024-03-09T12:17:31.405Z,0.53
2024-03-09T12:18:31.385Z,0.53
2024-03-09T12:19:31.414Z,0.52
2024-03-09T12:20:33.030Z,0.52
2024-03-09T12:21:31.432Z,0.53
2024-03-09T12:22:31.453Z,0.53
2024-03-09T12:23:31.408Z,0.53
2024-03-09T12:24:31.440Z,0.53
2024-03-09T12:25:31.419Z,0.52
2024-03-09T12:26:34.015Z,0.53
2024-03-09T12:27:31.437Z,0.53
2024-03-09T12:28:31.448Z,0.53
2024-03-09T12:29:31.434Z,0.54
2024-03-09T12:30:31.444Z,0.53
2024-03-09T12:31:31.459Z,0.54
2024-03-09T12:32:34.689Z,0.53
2024-03-09T12:33:31.423Z,0.53
2024-03-09T12:34:31.485Z,0.53
2024-03-09T12:35:31.466Z,0.53
2024-03-09T12:36:31.471Z,0.53
2024-03-09T12:37:31.472Z,0.54
2024-03-09T12:38:33.991Z,0.55
2024-03-09T12:39:31.443Z,0.55
2024-03-09T12:40:31.464Z,0.55
2024-03-09T12:41:31.474Z,0.55
2024-03-09T12:42:31.462Z,0.54
2024-03-09T12:43:31.454Z,0.54
2024-03-09T12:44:32.155Z,0.54
2024-03-09T12:45:31.468Z,0.53
2024-03-09T12:46:31.466Z,0.54
2024-03-09T12:47:31.571Z,0.54
2024-03-09T12:48:31.438Z,0.54
2024-03-09T12:49:31.469Z,0.55
2024-03-09T12:50:31.479Z,0.54
2024-03-09T12:51:31.462Z,0.54
2024-03-09T12:52:31.487Z,0.53
2024-03-09T12:53:31.500Z,0.54
2024-03-09T12:54:31.494Z,0.54
2024-03-09T12:55:31.501Z,0.53
2024-03-09T12:56:33.600Z,0.54
2024-03-09T12:57:31.680Z,0.55
2024-03-09T12:58:31.685Z,0.53
2024-03-09T12:59:31.694Z,0.55
2024-03-09T13:00:31.704Z,0.54
2024-03-09T13:01:31.735Z,0.55
2024-03-09T13:02:31.820Z,0.54
2024-03-09T13:03:31.746Z,0.55
2024-03-09T13:04:31.754Z,0.54
2024-03-09T13:05:31.791Z,0.54
2024-03-09T13:06:31.842Z,0.55
2024-03-09T13:07:31.856Z,0.54
2024-03-09T13:08:31.871Z,0.55
2024-03-09T13:09:33.128Z,0.54
2024-03-09T13:10:32.335Z,0.55
2024-03-09T13:11:32.180Z,0.54
2024-03-09T13:12:32.127Z,0.54
2024-03-09T13:13:32.170Z,0.54
2024-03-09T13:14:32.258Z,0.53
2024-03-09T13:15:32.180Z,0.52
2024-03-09T13:16:32.193Z,0.53
2024-03-09T13:17:32.313Z,0.53
2024-03-09T13:18:32.218Z,0.53
2024-03-09T13:19:32.260Z,0.54
2024-03-09T13:20:32.361Z,0.53